Time;durP1;ratioP1;P1;durP2;ratioP2;P2;SDS_P1;SDS_P2;PMS_P1;PMS_P2;Temp;Humidity;BMP_temperature;BMP_pressure;BME280_temperature;BME280_humidity;BME280_pressure;Samples;Min_cycle;Max_cycle;Signal;HPM_P1;HPM_P2
2023/09/18 00:03:03;;;;;;;1999.90;999.90;;;;;;;17.53;100.00;100670.94;10455259;28;20045;-76
2023/09/18 00:08:06;;;;;;;1999.90;999.90;;;;;;;17.63;100.00;100663.84;10455812;28;20486;-76
2023/09/18 00:13:09;;;;;;;1999.90;999.90;;;;;;;17.50;100.00;100656.19;10454368;28;20063;-76
2023/09/18 00:18:13;;;;;;;1999.90;999.90;;;;;;;17.56;100.00;100654.78;10454400;28;20530;-76
2023/09/18 00:23:15;;;;;;;1999.90;999.90;;;;;;;17.53;100.00;100641.81;10455323;28;20509;-76
2023/09/18 00:28:18;;;;;;;1999.90;999.90;;;;;;;17.52;100.00;100632.22;10456162;28;20053;-75
2023/09/18 00:33:21;;;;;;;1999.90;999.90;;;;;;;17.69;100.00;100633.38;10455852;28;20103;-76
2023/09/18 00:38:23;;;;;;;1999.90;999.90;;;;;;;17.70;100.00;100627.06;10455802;28;20049;-76
2023/09/18 00:43:25;;;;;;;1999.90;999.90;;;;;;;17.67;100.00;100614.97;10455334;28;20470;-75
2023/09/18 00:48:28;;;;;;;1999.90;999.90;;;;;;;17.66;100.00;100601.88;10455633;28;20052;-76
2023/09/18 00:53:31;;;;;;;1999.90;999.90;;;;;;;17.55;100.00;100595.72;10454369;28;20132;-76
2023/09/18 00:58:33;;;;;;;1999.90;999.90;;;;;;;17.57;100.00;100603.53;10437916;28;20053;-75
2023/09/18 01:03:36;;;;;;;1999.90;999.90;;;;;;;17.54;100.00;100595.88;10458526;28;20088;-76
2023/09/18 01:08:38;;;;;;;1999.90;999.90;;;;;;;17.68;100.00;100581.38;10462584;28;20055;-75
2023/09/18 01:13:56;;;;;;;1999.90;999.90;;;;;;;17.57;100.00;100574.41;10461611;28;20057;-76
2023/09/18 01:18:59;;;;;;;1999.90;999.90;;;;;;;17.44;100.00;100567.56;10461054;28;20124;-75
2023/09/18 01:24:01;;;;;;;1999.90;999.90;;;;;;;17.59;100.00;100546.81;10461256;28;20574;-75
2023/09/18 01:29:04;;;;;;;1999.90;999.90;;;;;;;17.63;100.00;100542.06;10460635;28;20087;-75
2023/09/18 01:34:06;;;;;;;1999.90;999.90;;;;;;;17.62;100.00;100529.84;10461656;28;20124;-75
2023/09/18 01:39:10;;;;;;;1999.90;999.90;;;;;;;17.68;100.00;100521.31;10459635;28;20478;-75
2023/09/18 01:44:12;;;;;;;1999.90;999.90;;;;;;;17.64;100.00;100517.28;10459551;28;20470;-75
2023/09/18 01:49:15;;;;;;;1999.90;999.90;;;;;;;17.68;100.00;100516.00;10461012;28;20076;-75
2023/09/18 01:54:17;;;;;;;1999.90;999.90;;;;;;;17.63;100.00;100513.81;10460167;28;20488;-74
2023/09/18 01:59:20;;;;;;;1999.90;999.90;;;;;;;17.80;100.00;100500.81;10460666;28;20059;-75
2023/09/18 02:04:23;;;;;;;1999.90;999.90;;;;;;;17.97;100.00;100486.88;10459264;28;20048;-75
2023/09/18 02:09:46;;;;;;;1999.90;999.90;;;;;;;17.85;100.00;100482.69;10459977;28;20072;-74
2023/09/18 02:14:48;;;;;;;1999.90;999.90;;;;;;;17.83;100.00;100484.63;10459128;28;20131;-75
2023/09/18 02:19:50;;;;;;;1999.90;999.90;;;;;;;18.02;100.00;100491.72;10458163;28;20075;-75
2023/09/18 02:24:53;;;;;;;1999.90;999.90;;;;;;;18.00;100.00;100473.34;10458390;28;20126;-75
2023/09/18 02:29:55;;;;;;;1999.90;999.90;;;;;;;18.05;100.00;100456.19;10458761;28;20517;-75
2023/09/18 02:34:58;;;;;;;1999.90;999.90;;;;;;;18.24;100.00;100442.00;10459202;28;20079;-75
2023/09/18 02:40:00;;;;;;;1999.90;999.90;;;;;;;18.13;100.00;100420.03;10458985;28;20055;-74
2023/09/18 02:45:03;;;;;;;1999.90;999.90;;;;;;;18.17;100.00;100413.47;10459004;28;20129;-74
2023/09/18 02:50:06;;;;;;;1999.90;999.90;;;;;;;18.18;100.00;100398.41;10457978;28;20462;-75
2023/09/18 02:55:10;;;;;;;1999.90;999.90;;;;;;;18.27;100.00;100383.44;10457228;28;20049;-75
2023/09/18 03:00:12;;;;;;;1999.90;999.90;;;;;;;18.38;100.00;100354.06;10458390;28;20076;-75
2023/09/18 03:05:15;;;;;;;1999.90;999.90;;;;;;;18.26;100.00;100342.03;10457978;28;20124;-75
2023/09/18 03:10:18;;;;;;;1999.90;999.90;;;;;;;18.40;100.00;100327.44;10457040;28;20061;-75
2023/09/18 03:15:20;;;;;;;1999.90;999.90;;;;;;;18.72;100.00;100330.38;10455994;28;20056;-75
2023/09/18 03:20:24;;;;;;;1999.90;999.90;;;;;;;18.65;100.00;100301.97;10455779;28;20053;-75
2023/09/18 03:25:26;;;;;;;1999.90;999.90;;;;;;;18.60;100.00;100293.66;10455147;28;20527;-76
2023/09/18 03:30:29;;;;;;;1999.90;999.90;;;;;;;18.59;100.00;100287.50;10456133;28;20048;-75
2023/09/18 03:35:32;;;;;;;1999.90;999.90;;;;;;;18.61;100.00;100274.94;10456462;28;20099;-75
2023/09/18 03:40:35;;;;;;;1999.90;999.90;;;;;;;18.85;100.00;100281.47;10455403;28;20064;-75
2023/09/18 03:45:37;;;;;;;1999.90;999.90;;;;;;;18.77;100.00;100298.09;10456811;28;20128;-73
2023/09/18 03:50:40;;;;;;;1999.90;999.90;;;;;;;18.54;100.00;100329.53;10456175;28;20435;-72
2023/09/18 03:55:43;;;;;;;1999.90;999.90;;;;;;;18.45;100.00;100320.69;10456679;28;20076;-72
2023/09/18 04:00:45;;;;;;;1999.90;999.90;;;;;;;18.87;100.00;100300.69;10455474;28;20045;-72
2023/09/18 04:05:48;;;;;;;1999.90;999.90;;;;;;;18.81;100.00;100286.22;10455768;28;20473;-72
2023/09/18 04:10:50;;;;;;;1999.90;999.90;;;;;;;18.95;100.00;100279.53;10455764;28;20053;-73
2023/09/18 04:15:56;;;;;;;1999.90;999.90;;;;;;;18.91;100.00;100288.78;10456334;28;20129;-72
2023/09/18 04:20:59;;;;;;;1999.90;999.90;;;;;;;18.88;100.00;100281.97;10456297;28;20053;-72
2023/09/18 04:26:02;;;;;;;1999.90;999.90;;;;;;;18.80;100.00;100273.94;10526046;22;20055;-71
2023/09/18 04:31:04;;;;;;;1999.90;999.90;;;;;;;18.72;100.00;100261.44;10581432;28;20058;-71
2023/09/18 04:36:07;;;;;;;1999.90;999.90;;;;;;;18.68;100.00;100259.25;10580972;28;20552;-71
2023/09/18 04:41:11;;;;;;;1999.90;999.90;;;;;;;18.68;100.00;100238.06;10589316;28;20043;-72
2023/09/18 04:46:13;;;;;;;1999.90;999.90;;;;;;;18.85;100.00;100247.81;10554464;28;20048;-72
2023/09/18 04:51:16;;;;;;;1999.90;999.90;;;;;;;18.96;100.00;100246.72;10570867;28;20131;-71
2023/09/18 04:56:19;;;;;;;1999.90;999.90;;;;;;;18.93;100.00;100239.09;10588699;28;20122;-71
2023/09/18 05:01:21;;;;;;;1999.90;999.90;;;;;;;19.02;100.00;100218.75;10587848;28;20472;-71
2023/09/18 05:06:24;;;;;;;1999.90;999.90;;;;;;;19.19;100.00;100198.44;10587567;28;20123;-71
2023/09/18 05:11:27;;;;;;;1999.90;999.90;;;;;;;19.08;100.00;100199.53;10587416;28;20553;-71
2023/09/18 05:16:29;;;;;;;1999.90;999.90;;;;;;;19.25;100.00;100203.94;10585067;28;20040;-71
2023/09/18 05:21:34;;;;;;;1999.90;999.90;;;;;;;19.18;100.00;100189.66;10585888;28;20058;-71
2023/09/18 05:26:37;;;;;;;1999.90;999.90;;;;;;;19.16;100.00;100182.81;10578924;28;20117;-71
2023/09/18 05:31:39;;;;;;;1999.90;999.90;;;;;;;19.15;100.00;100197.91;10586665;28;20100;-71
2023/09/18 05:36:42;;;;;;;1999.90;999.90;;;;;;;19.10;100.00;100202.88;10568425;28;20567;-71
2023/09/18 05:41:44;;;;;;;1999.90;999.90;;;;;;;19.17;100.00;100203.88;10586757;28;20127;-71
2023/09/18 05:46:47;;;;;;;1999.90;999.90;;;;;;;19.27;100.00;100227.66;10585744;28;20081;-71
2023/09/18 05:51:49;;;;;;;1999.90;999.90;;;;;;;19.17;100.00;100248.19;10567576;28;20389;-69
2023/09/18 05:56:51;;;;;;;1999.90;999.90;;;;;;;19.09;100.00;100262.22;10585573;28;20546;-71
2023/09/18 06:01:54;;;;;;;1999.90;999.90;;;;;;;18.99;100.00;100304.75;10585354;28;20048;-71
2023/09/18 06:06:57;;;;;;;1999.90;999.90;;;;;;;19.04;100.00;100302.47;10585702;28;20411;-71
2023/09/18 06:12:00;;;;;;;1999.90;999.90;;;;;;;19.03;100.00;100302.63;10585120;28;20500;-71
2023/09/18 06:17:03;;;;;;;1999.90;999.90;;;;;;;19.21;100.00;100302.59;10585402;28;20051;-71
2023/09/18 06:22:05;;;;;;;1999.90;999.90;;;;;;;19.09;100.00;100302.84;10566431;28;20079;-71
2023/09/18 06:27:07;;;;;;;1999.90;999.90;;;;;;;19.08;100.00;100308.28;10584173;28;20087;-71
2023/09/18 06:32:10;;;;;;;1999.90;999.90;;;;;;;19.31;100.00;100296.16;10584195;28;20051;-67
2023/09/18 06:37:12;;;;;;;1999.90;999.90;;;;;;;19.31;100.00;100288.22;10584640;28;20047;-71
2023/09/18 06:42:15;;;;;;;1999.90;999.90;;;;;;;19.17;100.00;100303.91;10566114;28;20047;-71
2023/09/18 06:47:17;;;;;;;1999.90;999.90;;;;;;;19.08;100.00;100309.16;10583449;28;20482;-71
2023/09/18 06:52:20;;;;;;;1999.90;999.90;;;;;;;19.13;100.00;100298.03;10584039;28;20051;-71
2023/09/18 06:57:22;;;;;;;1999.90;999.90;;;;;;;19.10;100.00;100291.25;10583160;28;20087;-71
2023/09/18 07:02:25;;;;;;;1999.90;999.90;;;;;;;19.33;100.00;100293.34;10582116;28;20131;-71
2023/09/18 07:07:28;;;;;;;1999.90;999.90;;;;;;;19.38;100.00;100292.91;10583450;28;20047;-71
2023/09/18 07:12:31;;;;;;;1999.90;999.90;;;;;;;19.32;100.00;100289.06;10583301;28;20444;-71
2023/09/18 07:17:34;;;;;;;1999.90;999.90;;;;;;;19.25;100.00;100309.25;10565253;28;20055;-71
2023/09/18 07:22:38;;;;;;;1999.90;999.90;;;;;;;19.29;100.00;100292.03;10582857;28;20044;-71
2023/09/18 07:27:43;;;;;;;1999.90;999.90;;;;;;;19.38;100.00;100282.28;10581909;28;20496;-71
2023/09/18 07:32:46;;;;;;;1999.90;999.90;;;;;;;19.47;100.00;100273.38;10582643;28;20040;-71
2023/09/18 07:37:49;;;;;;;1999.90;999.90;;;;;;;19.43;100.00;100269.38;10581811;28;20429;-71
2023/09/18 07:42:51;;;;;;;1999.90;999.90;;;;;;;19.56;100.00;100293.66;10564293;28;20083;-71
2023/09/18 07:47:54;;;;;;;1999.90;999.90;;;;;;;19.36;100.00;100295.72;10564263;28;20087;-71
2023/09/18 07:52:56;;;;;;;1999.90;999.90;;;;;;;19.44;100.00;100305.53;10582135;28;20050;-72
2023/09/18 07:57:59;;;;;;;1999.90;999.90;;;;;;;19.41;100.00;100292.59;10581400;28;20625;-71
2023/09/18 08:03:02;;;;;;;1999.90;999.90;;;;;;;19.47;100.00;100307.91;10581886;28;20088;-72
2023/09/18 08:08:05;;;;;;;1999.90;999.90;;;;;;;19.66;100.00;100312.13;10581184;28;20411;-72
2023/09/18 08:13:08;;;;;;;1999.90;999.90;;;;;;;19.67;100.00;100282.75;10587313;28;20051;-71
2023/09/18 08:18:10;;;;;;;1999.90;999.90;;;;;;;19.82;100.00;100290.97;10590205;28;20086;-71
2023/09/18 08:23:13;;;;;;;1999.90;999.90;;;;;;;19.86;100.00;100297.63;10555088;28;20082;-72
2023/09/18 08:28:16;;;;;;;1999.90;999.90;;;;;;;20.04;100.00;100291.38;10588949;28;20070;-71
2023/09/18 08:33:18;;;;;;;1999.90;999.90;;;;;;;20.16;100.00;100291.91;10589568;28;20118;-72
2023/09/18 08:38:21;;;;;;;1999.90;999.90;;;;;;;20.32;100.00;100283.13;10589333;28;20054;-72
2023/09/18 08:43:24;;;;;;;1999.90;999.90;;;;;;;19.95;100.00;100295.81;10588381;28;20054;-72
2023/09/18 08:48:34;;;;;;;1999.90;999.90;;;;;;;20.05;100.00;100314.28;10570306;28;20043;-72
2023/09/18 08:53:37;;;;;;;1999.90;999.90;;;;;;;20.15;100.00;100309.66;10588882;28;20105;-72
2023/09/18 08:58:42;;;;;;;1999.90;999.90;;;;;;;20.34;100.00;100310.38;10569855;28;20054;-71
2023/09/18 09:03:45;;;;;;;1999.90;999.90;;;;;;;20.23;100.00;100316.84;10553569;28;20043;-71
2023/09/18 09:08:47;;;;;;;1999.90;999.90;;;;;;;20.39;100.00;100322.19;10587643;28;20052;-70
2023/09/18 09:14:17;;;;;;;1999.90;999.90;;;;;;;20.75;100.00;100335.22;10588034;28;20050;-70
2023/09/18 09:19:32;;;;;;;1999.90;999.90;;;;;;;20.72;100.00;100319.59;10587867;28;20065;-72
2023/09/18 09:24:44;;;;;;;1999.90;999.90;;;;;;;20.34;100.00;100319.19;10568741;28;20131;-71
2023/09/18 09:30:07;;;;;;;1999.90;999.90;;;;;;;21.60;100.00;100302.03;10587358;28;20059;-72
2023/09/18 09:35:10;;;;;;;1999.90;999.90;;;;;;;23.49;96.05;100294.47;10587197;28;20125;-72
2023/09/18 09:40:14;;;;;;;1999.90;999.90;;;;;;;24.60;93.50;100297.00;10569006;28;20126;-72
2023/09/18 09:45:17;;;;;;;1999.90;999.90;;;;;;;24.70;84.05;100289.47;10551445;28;20530;-72
2023/09/18 09:50:19;;;;;;;1999.90;999.90;;;;;;;24.76;86.68;100304.75;10568551;28;20086;-72
2023/09/18 09:55:33;;;;;;;1999.90;999.90;;;;;;;25.70;79.83;100283.94;10586375;28;20056;-72
2023/09/18 10:00:45;;;;;;;1999.90;999.90;;;;;;;26.21;76.29;100277.31;10585543;28;20484;-72
2023/09/18 10:05:51;;;;;;;1999.90;999.90;;;;;;;27.14;71.69;100284.59;10568736;28;20055;-72
2023/09/18 10:11:01;;;;;;;1999.90;999.90;;;;;;;25.19;75.60;100311.88;10567888;28;20047;-72
2023/09/18 10:16:06;;;;;;;1999.90;999.90;;;;;;;25.25;73.88;100329.84;10567629;28;20066;-74
2023/09/18 10:21:38;;;;;;;1999.90;999.90;;;;;;;24.21;79.26;100330.31;10567614;28;20079;-73
2023/09/18 10:26:56;;;;;;;1999.90;999.90;;;;;;;24.00;79.25;100344.50;10566440;28;20055;-73
2023/09/18 10:31:58;;;;;;;1999.90;999.90;;;;;;;23.56;82.29;100332.78;10566532;28;20110;-73
2023/09/18 10:37:06;;;;;;;1999.90;999.90;;;;;;;24.25;77.46;100355.69;10549103;28;20127;-73
2023/09/18 10:42:09;;;;;;;1999.90;999.90;;;;;;;24.48;78.56;100350.19;10550084;28;20060;-75
2023/09/18 10:47:12;;;;;;;1999.90;999.90;;;;;;;23.70;80.40;100357.84;10565355;28;20411;-74
2023/09/18 10:52:14;;;;;;;1999.90;999.90;;;;;;;24.06;78.28;100357.94;10583992;28;20047;-74
2023/09/18 10:57:17;;;;;;;1999.90;999.90;;;;;;;26.28;73.02;100321.91;10565082;28;20453;-74
2023/09/18 11:02:19;;;;;;;1999.90;999.90;;;;;;;25.64;69.78;100330.28;10582866;28;20407;-73
2023/09/18 11:07:23;;;;;;;1999.90;999.90;;;;;;;24.95;75.28;100331.88;10565341;28;20050;-74
2023/09/18 11:12:45;;;;;;;1999.90;999.90;;;;;;;26.79;67.19;100315.19;10564676;28;20500;-71
2023/09/18 11:17:59;;;;;;;1999.90;999.90;;;;;;;24.82;74.42;100319.22;10564505;28;20067;-73
2023/09/18 11:23:17;;;;;;;1999.90;999.90;;;;;;;27.17;68.87;100317.25;10582270;28;20048;-73
2023/09/18 11:28:24;;;;;;;1999.90;999.90;;;;;;;25.82;69.81;100316.38;10581960;28;20497;-73
2023/09/18 11:33:36;;;;;;;1999.90;999.90;;;;;;;28.46;65.75;100308.47;10563995;28;20420;-73
2023/09/18 11:39:03;;;;;;;1999.90;999.90;;;;;;;24.80;72.04;100321.28;10581791;28;20517;-73
2023/09/18 11:44:14;;;;;;;1999.90;999.90;;;;;;;23.79;80.40;100323.81;10564816;28;20044;-73
2023/09/18 11:49:26;;;;;;;1999.90;999.90;;;;;;;22.92;88.07;100333.25;10581223;28;20062;-74
2023/09/18 11:54:29;;;;;;;1999.90;999.90;;;;;;;22.67;92.03;100346.75;10564572;28;20054;-73
2023/09/18 11:59:46;;;;;;;1999.90;999.90;;;;;;;22.13;92.75;100347.56;10563551;28;20487;-72
2023/09/18 12:04:48;;;;;;;1999.90;999.90;;;;;;;21.84;88.58;100334.91;10563985;28;20527;-71
2023/09/18 12:09:51;;;;;;;1999.90;999.90;;;;;;;25.67;78.25;100325.41;10581187;28;20511;-71
2023/09/18 12:14:53;;;;;;;1999.90;999.90;;;;;;;27.09;72.12;100317.44;10581105;28;20151;-71
2023/09/18 12:19:56;;;;;;;1999.90;999.90;;;;;;;26.38;68.45;100324.22;10563664;28;20460;-71
2023/09/18 12:25:11;;;;;;;1999.90;999.90;;;;;;;27.17;67.77;100306.50;10563036;28;20086;-71
2023/09/18 12:30:20;;;;;;;1999.90;999.90;;;;;;;28.04;66.36;100302.72;10564021;28;20052;-71
2023/09/18 12:35:29;;;;;;;1999.90;999.90;;;;;;;29.03;62.87;100294.97;10581302;28;20043;-71
2023/09/18 12:40:35;;;;;;;1999.90;999.90;;;;;;;28.02;60.52;100291.34;10581294;28;20051;-71
2023/09/18 12:45:37;;;;;;;1999.90;999.90;;;;;;;27.30;60.71;100286.84;10563587;28;20040;-70
2023/09/18 12:50:40;;;;;;;1999.90;999.90;;;;;;;25.45;65.93;100289.78;10562374;28;20484;-70
2023/09/18 12:55:43;;;;;;;1999.90;999.90;;;;;;;28.90;59.76;100269.81;10562971;28;20054;-71
2023/09/18 13:00:49;;;;;;;1999.90;999.90;;;;;;;27.82;58.69;100275.28;10586148;28;20567;-71
2023/09/18 13:05:54;;;;;;;1999.90;999.90;;;;;;;27.67;57.89;100276.41;10570213;28;20048;-71
2023/09/18 13:10:57;;;;;;;1999.90;999.90;;;;;;;26.86;62.52;100272.22;10588239;28;20097;-70
2023/09/18 13:16:05;;;;;;;1999.90;999.90;;;;;;;27.45;56.94;100265.09;10587907;28;20122;-71
2023/09/18 13:21:12;;;;;;;1999.90;999.90;;;;;;;26.93;60.49;100248.84;10569789;28;20051;-71
2023/09/18 13:26:15;;;;;;;1999.90;999.90;;;;;;;25.22;63.03;100250.69;10569016;28;20047;-71
2023/09/18 13:31:18;;;;;;;1999.90;999.90;;;;;;;25.62;64.08;100257.31;10587351;28;20069;-71
2023/09/18 13:36:21;;;;;;;1999.90;999.90;;;;;;;27.30;60.24;100235.78;10568726;28;20044;-70
2023/09/18 13:41:23;;;;;;;1999.90;999.90;;;;;;;27.19;60.74;100228.34;10586947;28;20051;-71
2023/09/18 13:46:25;;;;;;;1999.90;999.90;;;;;;;27.51;60.71;100221.22;10586736;28;20047;-72
2023/09/18 13:51:28;;;;;;;1999.90;999.90;;;;;;;28.27;57.06;100232.19;10586636;28;20056;-72
2023/09/18 13:56:30;;;;;;;1999.90;999.90;;;;;;;27.63;62.27;100226.75;10586688;28;20073;-71
2023/09/18 14:01:33;;;;;;;1999.90;999.90;;;;;;;27.95;57.02;100211.50;10585553;28;20500;-71
2023/09/18 14:06:35;;;;;;;1999.90;999.90;;;;;;;27.78;55.40;100211.16;10585901;28;20050;-73
2023/09/18 14:11:40;;;;;;;1999.90;999.90;;;;;;;27.40;56.31;100201.25;10584874;28;20442;-73
2023/09/18 14:16:43;;;;;;;1999.90;999.90;;;;;;;28.13;57.78;100172.28;10585615;28;20498;-73
2023/09/18 14:21:46;;;;;;;1999.90;999.90;;;;;;;28.95;56.14;100187.47;10566641;28;20078;-73
2023/09/18 14:26:49;;;;;;;1999.90;999.90;;;;;;;28.07;57.52;100176.66;10584498;28;20232;-73
2023/09/18 14:31:51;;;;;;;1999.90;999.90;;;;;;;28.24;59.12;100166.16;10566881;28;20073;-73
2023/09/18 14:36:54;;;;;;;1999.90;999.90;;;;;;;28.37;53.90;100161.72;10566025;28;20040;-73
2023/09/18 14:41:56;;;;;;;1999.90;999.90;;;;;;;26.51;60.17;100160.50;10584538;28;20071;-74
2023/09/18 14:46:59;;;;;;;1999.90;999.90;;;;;;;26.10;62.81;100171.44;10583568;28;20486;-73
2023/09/18 14:52:03;;;;;;;1999.90;999.90;;;;;;;25.38;62.03;100169.19;10565705;28;20403;-73
2023/09/18 14:57:05;;;;;;;1999.90;999.90;;;;;;;24.45;62.21;100172.13;10565944;28;20176;-73
2023/09/18 15:02:08;;;;;;;1999.90;999.90;;;;;;;23.93;66.82;100176.81;10583213;28;20400;-73
2023/09/18 15:07:10;;;;;;;1999.90;999.90;;;;;;;23.73;66.90;100178.41;10564824;28;20150;-73
2023/09/18 15:12:13;;;;;;;1999.90;999.90;;;;;;;23.29;69.57;100177.50;10583368;28;20109;-72
2023/09/18 15:17:16;;;;;;;1999.90;999.90;;;;;;;23.67;67.01;100172.00;10582690;28;20492;-72
2023/09/18 15:22:18;;;;;;;1999.90;999.90;;;;;;;23.27;72.35;100160.03;10582374;28;20079;-72
2023/09/18 15:27:21;;;;;;;1999.90;999.90;;;;;;;23.34;66.64;100160.94;10582150;28;20067;-72
2023/09/18 15:32:23;;;;;;;1999.90;999.90;;;;;;;22.78;71.84;100153.41;10564694;28;20078;-73
2023/09/18 15:37:26;;;;;;;1999.90;999.90;;;;;;;22.48;73.67;100155.19;10564823;28;20123;-73
2023/09/18 15:42:28;;;;;;;1999.90;999.90;;;;;;;22.74;71.35;100200.94;10581797;28;20394;-73
2023/09/18 15:47:31;;;;;;;1999.90;999.90;;;;;;;20.63;80.59;100338.34;10581552;28;20480;-68
2023/09/18 15:52:33;;;;;;;1999.90;999.90;;;;;;;18.63;100.00;100311.91;10581590;28;20389;-68
2023/09/18 15:57:54;;;;;;;;;;;;;;;18.21;100.00;100313.31;10582310;28;20044;-68
2023/09/18 16:02:58;;;;;;;1999.90;999.90;;;;;;;18.17;100.00;100299.56;10581393;28;19919;-68
2023/09/18 16:08:04;;;;;;;1999.90;999.90;;;;;;;17.88;100.00;100305.00;10581208;28;20048;-67
2023/09/18 16:13:07;;;;;;;1999.90;999.90;;;;;;;17.94;100.00;100317.66;10581258;28;20056;-67
2023/09/18 16:18:10;;;;;;;1999.90;999.90;;;;;;;17.03;100.00;100298.84;10581087;28;20051;-65
2023/09/18 16:23:13;;;;;;;1999.90;999.90;;;;;;;17.54;100.00;100310.00;10581601;28;20078;-65
2023/09/18 16:28:16;;;;;;;1999.90;999.90;;;;;;;17.51;100.00;100300.53;10580697;28;20058;-67
2023/09/18 16:33:18;;;;;;;1999.90;999.90;;;;;;;17.94;100.00;100298.31;10584765;28;20411;-67
2023/09/18 16:38:21;;;;;;;1999.90;999.90;;;;;;;17.34;100.00;100317.19;10596899;22;20047;-69
2023/09/18 16:43:23;;;;;;;1999.90;999.90;;;;;;;17.23;100.00;100308.44;10462775;28;20060;-69
2023/09/18 16:48:27;;;;;;;1999.90;999.90;;;;;;;17.37;100.00;100303.66;10463706;28;20130;-69
2023/09/18 16:53:29;;;;;;;1999.90;999.90;;;;;;;17.44;100.00;100296.81;10462856;28;20100;-69
2023/09/18 16:58:32;;;;;;;1999.90;999.90;;;;;;;17.41;100.00;100292.63;10461551;28;20049;-69
2023/09/18 17:03:34;;;;;;;1999.90;999.90;;;;;;;17.52;100.00;100299.56;10462945;28;20055;-69
2023/09/18 17:08:37;;;;;;;1999.90;999.90;;;;;;;17.46;100.00;100287.72;10462930;28;20045;-69
2023/09/18 17:13:39;;;;;;;1999.90;999.90;;;;;;;17.42;100.00;100288.19;10461596;28;20052;-69
2023/09/18 17:18:42;;;;;;;1999.90;999.90;;;;;;;17.15;100.00;100307.50;10462497;28;20103;-69
2023/09/18 17:23:44;;;;;;;1999.90;999.90;;;;;;;17.36;100.00;100316.03;10460477;28;20138;-69
2023/09/18 17:28:47;;;;;;;1999.90;999.90;;;;;;;16.87;100.00;100323.25;10461510;28;20551;-70
2023/09/18 17:33:50;;;;;;;1999.90;999.90;;;;;;;16.98;100.00;100306.38;10461894;28;20056;-70
2023/09/18 17:38:53;;;;;;;1999.90;999.90;;;;;;;16.98;100.00;100315.16;10461501;28;20049;-70
2023/09/18 17:43:55;;;;;;;1999.90;999.90;;;;;;;17.14;100.00;100311.94;10460743;28;20041;-70
2023/09/18 17:48:58;;;;;;;1999.90;999.90;;;;;;;16.88;100.00;100309.88;10460773;28;20486;-69
2023/09/18 17:54:00;;;;;;;1999.90;999.90;;;;;;;16.88;100.00;100324.94;10461047;28;20055;-69
2023/09/18 17:59:03;;;;;;;1999.90;999.90;;;;;;;16.55;100.00;100324.31;10460949;28;20057;-69
2023/09/18 18:04:06;;;;;;;1999.90;999.90;;;;;;;16.81;100.00;100316.69;10460651;28;20041;-69
2023/09/18 18:09:09;;;;;;;1999.90;999.90;;;;;;;17.20;100.00;100306.06;10459878;28;20049;-70
2023/09/18 18:14:13;;;;;;;1999.90;999.90;;;;;;;16.76;100.00;100315.41;10442614;28;20049;-70
2023/09/18 18:19:16;;;;;;;1999.90;999.90;;;;;;;16.81;100.00;100336.97;10458390;28;20445;-70
2023/09/18 18:24:22;;;;;;;1999.90;999.90;;;;;;;16.61;100.00;100344.06;10459316;28;20490;-70
2023/09/18 18:29:24;;;;;;;1999.90;999.90;;;;;;;16.71;100.00;100337.00;10459758;28;20055;-70
2023/09/18 18:34:27;;;;;;;1999.90;999.90;;;;;;;16.64;100.00;100339.38;10459586;28;20052;-70
2023/09/18 18:39:29;;;;;;;1999.90;999.90;;;;;;;16.68;100.00;100347.84;10459040;28;20055;-70
2023/09/18 18:44:32;;;;;;;1999.90;999.90;;;;;;;17.03;100.00;100341.16;10459099;28;20045;-70
2023/09/18 18:49:34;;;;;;;1999.90;999.90;;;;;;;16.43;100.00;100351.84;10458541;28;20106;-69
2023/09/18 18:54:37;;;;;;;1999.90;999.90;;;;;;;16.63;100.00;100352.72;10458107;28;20124;-69
2023/09/18 18:59:41;;;;;;;1999.90;999.90;;;;;;;16.55;100.00;100373.72;10440684;28;20118;-69
2023/09/18 19:04:44;;;;;;;1999.90;999.90;;;;;;;16.33;100.00;100386.19;10457767;28;20052;-69
2023/09/18 19:09:46;;;;;;;1999.90;999.90;;;;;;;16.60;100.00;100374.97;10458189;28;20049;-69
2023/09/18 19:14:57;;;;;;;1999.90;999.90;;;;;;;17.04;100.00;100369.28;10457982;28;20045;-69
2023/09/18 19:19:59;;;;;;;1999.90;999.90;;;;;;;16.70;100.00;100369.69;10457883;28;20049;-70
2023/09/18 19:25:04;;;;;;;1999.90;999.90;;;;;;;16.70;100.00;100375.81;10456868;28;20474;-70
2023/09/18 19:30:07;;;;;;;1999.90;999.90;;;;;;;16.52;100.00;100380.94;10439890;28;20049;-70
2023/09/18 19:35:10;;;;;;;1999.90;999.90;;;;;;;16.90;100.00;100384.59;10457337;28;20053;-69
2023/09/18 19:40:13;;;;;;;1999.90;999.90;;;;;;;16.43;100.00;100394.97;10456199;28;20159;-70
2023/09/18 19:45:16;;;;;;;1999.90;999.90;;;;;;;16.48;100.00;100407.78;10457042;28;20049;-70
2023/09/18 19:50:18;;;;;;;1999.90;999.90;;;;;;;16.28;100.00;100425.38;10457072;28;20051;-70
2023/09/18 19:55:22;;;;;;;1999.90;999.90;;;;;;;16.56;100.00;100417.66;10456133;28;20123;-70
2023/09/18 20:00:30;;;;;;;1999.90;999.90;;;;;;;16.45;100.00;100426.53;10455656;28;20108;-70
2023/09/18 20:05:33;;;;;;;1999.90;999.90;;;;;;;16.45;100.00;100426.53;10455939;28;20152;-70
2023/09/18 20:10:36;;;;;;;1999.90;999.90;;;;;;;16.78;100.00;100420.06;10464527;28;20056;-69
2023/09/18 20:15:39;;;;;;;1999.90;999.90;;;;;;;16.85;100.00;100417.72;10464346;28;20052;-69
2023/09/18 20:20:41;;;;;;;1999.90;999.90;;;;;;;16.57;100.00;100424.63;10464138;28;20158;-69
2023/09/18 20:25:45;;;;;;;1999.90;999.90;;;;;;;16.63;100.00;100424.09;10463413;28;20052;-69
2023/09/18 20:30:52;;;;;;;1999.90;999.90;;;;;;;16.49;100.00;100428.78;10463800;28;20481;-70
2023/09/18 20:36:02;;;;;;;1999.90;999.90;;;;;;;16.42;100.00;100424.97;10462625;28;20410;-69
2023/09/18 20:41:04;;;;;;;1999.90;999.90;;;;;;;16.46;100.00;100433.50;10462104;28;20456;-69
2023/09/18 20:46:07;;;;;;;1999.90;999.90;;;;;;;16.16;100.00;100430.75;10463758;28;20045;-69
2023/09/18 20:51:09;;;;;;;1999.90;999.90;;;;;;;16.44;100.00;100435.41;10463633;28;20057;-70
2023/09/18 20:56:12;;;;;;;1999.90;999.90;;;;;;;15.87;100.00;100443.84;10445724;28;20044;-70
2023/09/18 21:01:14;;;;;;;1999.90;999.90;;;;;;;16.02;100.00;100449.59;10463216;28;20048;-70
2023/09/18 21:06:18;;;;;;;1999.90;999.90;;;;;;;16.37;100.00;100440.41;10462947;28;20057;-70
2023/09/18 21:11:20;;;;;;;1999.90;999.90;;;;;;;15.98;100.00;100446.38;10462190;28;20549;-70
2023/09/18 21:16:23;;;;;;;1999.90;999.90;;;;;;;16.09;100.00;100461.31;10462622;28;20076;-70
2023/09/18 21:21:25;;;;;;;1999.90;999.90;;;;;;;15.78;100.00;100465.72;10460680;28;20102;-70
2023/09/18 21:26:28;;;;;;;1999.90;999.90;;;;;;;15.63;100.00;100461.69;10461713;28;20498;-70
2023/09/18 21:31:30;;;;;;;1999.90;999.90;;;;;;;15.86;100.00;100476.47;10461578;28;20409;-70
2023/09/18 21:36:34;;;;;;;1999.90;999.90;;;;;;;15.44;100.00;100481.72;10461799;28;20492;-70
2023/09/18 21:41:36;;;;;;;1999.90;999.90;;;;;;;15.58;100.00;100491.97;10461158;28;20052;-70
2023/09/18 21:46:39;;;;;;;1999.90;999.90;;;;;;;15.80;100.00;100487.53;10461420;28;20132;-70
2023/09/18 21:51:41;;;;;;;1999.90;999.90;;;;;;;15.57;100.00;100506.13;10460289;28;20059;-71